Alameda, California
Current Conditions -  °F | °C
As of 5:53 PM on Sunday 21 Dec 2014 (Local Time) from KOAK Reporting Station
Scattered Clouds Scattered Clouds  
Wind Chill: 59°   Ceiling: Unl
Heat Index: 59°   Visibility: 10mi
Dew Point: 56°   Wind: 13mph
Humidity: 90%   Direction: 280°W
Pressure: 30.27"   Gusts: NA
Location:  37.77°N, 122.24°W
Report Text: KOAK 220153Z 28011KT 10SM FEW013 SCT200 15/13 A3027 RMK AO2 SLP250 T01500133
Loading
Personal Weather Stations






























Interactive Weather Map New forecast layout! Learn more

10-Day Weather Forecast

Advertisements
Track Severe Weather on mobile